createdAt,value
2022-12-29T00:00:18.733Z,13.80
2022-12-29T00:02:45.625Z,13.80
2022-12-29T00:05:12.336Z,13.80
2022-12-29T00:07:39.024Z,13.70
2022-12-29T00:10:06.317Z,13.80
2022-12-29T00:12:52.939Z,13.80
2022-12-29T00:15:37.844Z,13.80
2022-12-29T00:18:04.901Z,13.80
2022-12-29T00:20:53.777Z,13.90
2022-12-29T00:26:35.801Z,13.90
2022-12-29T00:29:21.068Z,13.90
2022-12-29T00:32:06.439Z,14.00
2022-12-29T00:34:52.403Z,13.90
2022-12-29T00:37:39.310Z,13.90
2022-12-29T00:40:25.026Z,13.90
2022-12-29T00:43:10.681Z,13.90
2022-12-29T00:45:37.419Z,13.90
2022-12-29T03:43:04.093Z,13.90
2022-12-29T03:45:30.837Z,13.80
2022-12-29T03:47:57.525Z,13.80
2022-12-29T03:50:24.184Z,13.80
2022-12-29T03:52:50.874Z,13.80
2022-12-29T03:55:17.645Z,13.80
2022-12-29T03:57:45.184Z,13.80
2022-12-29T04:00:12.483Z,13.80
2022-12-29T04:02:39.572Z,13.80
2022-12-29T04:05:07.073Z,13.80
2022-12-29T04:07:34.370Z,13.80
2022-12-29T04:10:01.258Z,13.80
2022-12-29T04:12:28.129Z,13.80
2022-12-29T04:14:54.755Z,13.70
2022-12-29T04:17:21.436Z,13.70
2022-12-29T04:19:48.370Z,13.80
2022-12-29T04:22:15.024Z,13.70
2022-12-29T04:24:41.750Z,13.70
2022-12-29T04:27:08.494Z,13.80
2022-12-29T04:29:35.413Z,13.70
2022-12-29T04:32:02.100Z,13.80
2022-12-29T04:34:28.743Z,13.70
2022-12-29T04:36:55.451Z,13.70
2022-12-29T04:39:22.141Z,13.70
2022-12-29T04:41:48.810Z,13.60
2022-12-29T04:44:15.550Z,13.60
2022-12-29T04:46:42.256Z,13.70
2022-12-29T04:49:09.758Z,13.70
2022-12-29T04:51:36.623Z,13.70
2022-12-29T04:54:03.480Z,13.70
2022-12-29T04:56:30.235Z,13.70
2022-12-29T04:58:56.916Z,13.60
2022-12-29T05:01:23.690Z,13.70
2022-12-29T05:03:52.378Z,13.60
2022-12-29T05:06:19.148Z,13.60
2022-12-29T05:08:45.927Z,13.60
2022-12-29T05:11:12.632Z,13.60
2022-12-29T05:13:39.393Z,13.60
2022-12-29T05:16:06.536Z,13.70
2022-12-29T05:18:34.261Z,13.60
2022-12-29T05:21:00.931Z,13.60
2022-12-29T05:23:27.633Z,13.60
2022-12-29T05:25:54.449Z,13.60
2022-12-29T05:28:21.273Z,13.70
2022-12-29T05:30:51.626Z,13.60
2022-12-29T05:33:19.341Z,13.60
2022-12-29T05:35:47.367Z,13.60
2022-12-29T05:38:14.020Z,13.60
2022-12-29T05:40:41.247Z,13.50
2022-12-29T05:43:07.880Z,13.60
2022-12-29T05:45:34.588Z,13.50
2022-12-29T05:48:01.287Z,13.50
2022-12-29T05:50:28.051Z,13.50
2022-12-29T05:52:54.788Z,13.50
2022-12-29T05:55:21.608Z,13.50
2022-12-29T05:57:48.448Z,13.50
2022-12-29T06:00:15.711Z,13.50
2022-12-29T06:02:43.645Z,13.50
2022-12-29T06:05:10.632Z,13.60
2022-12-29T06:07:37.301Z,13.60
2022-12-29T06:10:05.970Z,13.60
2022-12-29T06:12:32.715Z,13.60
2022-12-29T06:14:59.439Z,13.60
2022-12-29T06:17:26.191Z,13.50
2022-12-29T06:19:52.947Z,13.50
2022-12-29T06:22:19.905Z,13.50
2022-12-29T06:24:46.575Z,13.50
2022-12-29T06:27:14.808Z,13.40
2022-12-29T06:29:41.866Z,13.40
2022-12-29T06:32:08.685Z,13.40
2022-12-29T06:34:35.573Z,13.40
2022-12-29T06:37:02.777Z,13.30
2022-12-29T06:39:29.710Z,13.30
2022-12-29T06:41:56.376Z,13.30
2022-12-29T06:44:23.154Z,13.30
2022-12-29T06:46:50.422Z,13.20
2022-12-29T06:51:44.466Z,13.10
2022-12-29T06:54:11.171Z,13.10
2022-12-29T06:56:37.902Z,13.10
2022-12-29T06:59:04.670Z,13.20
2022-12-29T07:01:31.706Z,13.20
2022-12-29T07:03:58.568Z,13.20
2022-12-29T07:06:25.318Z,13.10
2022-12-29T07:08:55.100Z,13.10
2022-12-29T07:13:49.718Z,13.00
2022-12-29T07:16:16.818Z,13.00
2022-12-29T07:18:43.960Z,13.00
2022-12-29T07:21:11.190Z,13.00
2022-12-29T07:23:37.930Z,13.00
2022-12-29T07:26:07.364Z,13.00
2022-12-29T07:28:36.336Z,13.00
2022-12-29T07:31:03.088Z,13.00
2022-12-29T07:33:30.801Z,13.00
2022-12-29T07:35:57.953Z,13.00
2022-12-29T07:38:24.618Z,13.10
2022-12-29T07:40:51.285Z,13.10
2022-12-29T07:43:18.290Z,13.10
2022-12-29T07:45:44.953Z,13.10
2022-12-29T07:48:11.690Z,13.10
2022-12-29T07:50:38.491Z,13.10
2022-12-29T07:53:05.191Z,13.20
2022-12-29T07:55:32.022Z,13.20
2022-12-29T07:57:58.795Z,13.30
2022-12-29T08:00:25.865Z,13.30
2022-12-29T08:02:52.703Z,13.30
2022-12-29T08:05:20.162Z,13.30
2022-12-29T08:07:47.791Z,13.30
2022-12-29T08:10:15.575Z,13.30
2022-12-29T08:12:43.363Z,13.30
2022-12-29T08:15:12.375Z,13.30
2022-12-29T08:17:39.323Z,13.30
2022-12-29T08:20:06.941Z,13.30
2022-12-29T08:22:33.786Z,13.30
2022-12-29T08:25:00.409Z,13.30
2022-12-29T08:27:27.237Z,13.30
2022-12-29T08:29:53.921Z,13.30
2022-12-29T08:32:20.584Z,13.30
2022-12-29T08:34:47.415Z,13.20
2022-12-29T08:37:14.201Z,13.30
2022-12-29T08:39:40.938Z,13.20
2022-12-29T08:42:07.654Z,13.30
2022-12-29T08:44:34.376Z,13.20
2022-12-29T08:47:01.094Z,13.30
2022-12-29T08:49:27.822Z,13.20
2022-12-29T08:51:54.526Z,13.20
2022-12-29T08:54:21.327Z,13.20
2022-12-29T08:56:47.956Z,13.30
2022-12-29T08:59:14.763Z,13.20
2022-12-29T09:01:41.597Z,13.20
2022-12-29T09:04:17.810Z,13.20
2022-12-29T09:06:45.913Z,13.20
2022-12-29T09:09:13.911Z,13.10
2022-12-29T09:11:40.759Z,13.10
2022-12-29T09:14:07.587Z,13.10
2022-12-29T09:16:35.747Z,13.10
2022-12-29T09:19:03.329Z,13.10
2022-12-29T09:21:30.194Z,13.10
2022-12-29T09:23:56.867Z,13.10
2022-12-29T09:26:23.616Z,13.10
2022-12-29T09:28:50.386Z,13.10
2022-12-29T09:31:17.142Z,13.10
2022-12-29T09:33:43.889Z,13.10
2022-12-29T09:36:10.716Z,13.10
2022-12-29T09:38:37.372Z,13.00
2022-12-29T09:41:21.957Z,13.00
2022-12-29T09:44:04.139Z,13.00
2022-12-29T09:46:48.865Z,13.00
2022-12-29T09:49:40.798Z,12.90
2022-12-29T09:52:32.667Z,12.90
2022-12-29T09:55:22.876Z,12.80
2022-12-29T09:57:59.913Z,12.80
2022-12-29T10:00:41.321Z,12.70
2022-12-29T10:03:17.172Z,12.80
2022-12-29T10:05:57.388Z,12.70
2022-12-29T10:08:59.943Z,12.70
2022-12-29T10:11:57.573Z,12.70
2022-12-29T10:14:44.536Z,12.70
2022-12-29T10:19:57.397Z,12.70
2022-12-29T10:23:04.198Z,12.60
2022-12-29T10:25:37.905Z,12.60
2022-12-29T10:28:20.060Z,12.60
2022-12-29T10:30:49.726Z,12.50
2022-12-29T10:33:42.201Z,12.50
2022-12-29T10:36:19.047Z,12.50
2022-12-29T10:38:52.302Z,12.40
2022-12-29T10:41:42.222Z,12.40
2022-12-29T10:44:16.027Z,12.40
2022-12-29T10:46:44.160Z,12.30
2022-12-29T10:49:21.580Z,12.40
2022-12-29T10:51:52.968Z,12.30
2022-12-29T10:54:23.526Z,12.30
2022-12-29T10:57:00.520Z,12.40
2022-12-29T10:59:31.303Z,12.30
2022-12-29T11:02:10.258Z,12.40
2022-12-29T11:04:44.434Z,12.30
2022-12-29T11:07:16.171Z,12.30
2022-12-29T11:09:44.936Z,12.40
2022-12-29T11:12:32.133Z,12.40
2022-12-29T11:15:10.688Z,12.40
2022-12-29T11:17:51.844Z,12.50
2022-12-29T11:20:39.381Z,12.50
2022-12-29T11:23:26.685Z,12.60
2022-12-29T11:26:31.745Z,12.60
2022-12-29T11:29:09.427Z,12.60
2022-12-29T11:31:46.976Z,12.70
2022-12-29T11:34:24.738Z,12.70
2022-12-29T11:36:54.137Z,12.80
2022-12-29T11:39:34.407Z,12.80
2022-12-29T11:42:03.446Z,12.90
2022-12-29T11:44:37.889Z,12.90
2022-12-29T11:47:05.897Z,13.00
2022-12-29T11:49:32.823Z,13.00
2022-12-29T11:52:00.613Z,13.10
2022-12-29T11:54:32.730Z,13.10
2022-12-29T11:57:19.377Z,13.20
2022-12-29T11:59:56.289Z,13.30
2022-12-29T12:03:00.116Z,13.30
2022-12-29T12:05:46.661Z,13.30
2022-12-29T12:08:21.299Z,13.30
2022-12-29T12:10:53.952Z,13.30
2022-12-29T12:13:50.773Z,13.40
2022-12-29T12:16:21.818Z,13.40
2022-12-29T12:21:43.448Z,13.40
2022-12-29T12:24:24.307Z,13.40
2022-12-29T12:27:09.764Z,13.50
2022-12-29T12:29:36.683Z,13.50
2022-12-29T12:32:29.430Z,13.40
2022-12-29T12:34:56.512Z,13.40
2022-12-29T12:37:32.350Z,13.40
2022-12-29T12:40:26.808Z,13.40
2022-12-29T12:43:21.088Z,13.50
2022-12-29T12:46:03.951Z,13.40
2022-12-29T12:49:04.842Z,13.50
2022-12-29T12:51:31.476Z,13.40
2022-12-29T12:54:25.898Z,13.50
2022-12-29T12:57:15.536Z,13.40
2022-12-29T13:00:09.471Z,13.40
2022-12-29T13:02:53.218Z,13.40
2022-12-29T13:05:55.982Z,13.40
2022-12-29T13:08:25.754Z,13.40
2022-12-29T13:10:57.856Z,13.40
2022-12-29T13:13:43.309Z,13.40
2022-12-29T13:16:28.537Z,13.40
2022-12-29T13:19:00.376Z,13.30
2022-12-29T13:22:00.176Z,13.30
2022-12-29T13:25:04.568Z,13.30
2022-12-29T13:28:18.323Z,13.30
2022-12-29T13:31:22.596Z,13.30
2022-12-29T13:34:11.197Z,13.30
2022-12-29T13:36:40.635Z,13.30
2022-12-29T13:39:41.983Z,13.40
2022-12-29T13:42:10.176Z,13.40
2022-12-29T13:44:43.126Z,13.30
2022-12-29T13:47:40.358Z,13.40
2022-12-29T13:50:16.811Z,13.30
2022-12-29T13:52:51.293Z,13.30
2022-12-29T13:55:47.141Z,13.30
2022-12-29T13:58:32.229Z,13.40
2022-12-29T14:01:11.608Z,13.40
2022-12-29T14:04:13.604Z,13.40
2022-12-29T14:06:43.699Z,13.40
2022-12-29T14:09:35.627Z,13.40
2022-12-29T14:12:02.467Z,13.50
2022-12-29T14:14:31.455Z,13.40
2022-12-29T14:17:14.990Z,13.40
2022-12-29T14:19:44.624Z,13.30
2022-12-29T14:22:12.988Z,13.30
2022-12-29T14:24:45.179Z,13.30
2022-12-29T14:27:11.788Z,13.20
2022-12-29T14:29:41.536Z,13.20
2022-12-29T14:32:26.300Z,13.10
2022-12-29T14:34:56.510Z,13.10
2022-12-29T14:37:29.540Z,13.00
2022-12-29T14:40:26.031Z,13.00
2022-12-29T14:42:55.681Z,13.00
2022-12-29T14:45:27.773Z,13.00
2022-12-29T14:47:55.243Z,12.90
2022-12-29T14:50:21.882Z,13.00
2022-12-29T14:53:04.096Z,13.00
2022-12-29T14:55:47.511Z,13.00
2022-12-29T14:58:30.790Z,13.10
2022-12-29T15:00:58.919Z,13.10
2022-12-29T15:03:45.448Z,13.10
2022-12-29T15:06:14.753Z,13.10
2022-12-29T15:09:04.496Z,13.10
2022-12-29T15:11:37.637Z,13.00
2022-12-29T15:14:04.388Z,13.10
2022-12-29T15:16:33.689Z,13.10
2022-12-29T15:19:00.853Z,13.00
2022-12-29T15:21:30.959Z,13.00
2022-12-29T15:23:57.662Z,13.00
2022-12-29T15:26:36.986Z,13.00
2022-12-29T15:29:03.618Z,13.00
2022-12-29T15:31:31.147Z,13.00
2022-12-29T15:34:12.316Z,13.10
2022-12-29T15:36:41.193Z,13.00
2022-12-29T15:39:28.741Z,13.10
2022-12-29T15:42:15.014Z,13.00
2022-12-29T15:44:45.266Z,13.00
2022-12-29T15:47:23.209Z,13.00
2022-12-29T15:49:55.122Z,13.00
2022-12-29T15:52:23.716Z,13.00
2022-12-29T15:54:52.459Z,13.00
2022-12-29T15:57:23.842Z,13.00
2022-12-29T15:59:51.235Z,12.90
2022-12-29T16:02:18.534Z,12.90
2022-12-29T16:05:15.631Z,12.80
2022-12-29T16:07:41.679Z,12.80
2022-12-29T16:10:34.421Z,12.80
2022-12-29T16:13:25.387Z,12.70
2022-12-29T16:16:02.347Z,12.70
2022-12-29T16:18:36.860Z,12.70
2022-12-29T16:21:05.995Z,12.70
2022-12-29T16:23:33.549Z,12.70
2022-12-29T16:26:00.597Z,12.60
2022-12-29T16:28:42.863Z,12.60
2022-12-29T16:31:23.750Z,12.60
2022-12-29T16:33:55.623Z,12.50
2022-12-29T16:36:27.043Z,12.50
2022-12-29T16:39:27.318Z,12.50
2022-12-29T16:41:55.881Z,12.50
2022-12-29T16:44:31.631Z,12.60
2022-12-29T16:47:10.432Z,12.50
2022-12-29T16:49:40.039Z,12.50
2022-12-29T16:52:24.584Z,12.50
2022-12-29T16:54:58.412Z,12.50
2022-12-29T16:57:29.890Z,12.50
2022-12-29T17:00:01.399Z,12.50
2022-12-29T17:02:30.750Z,12.40
2022-12-29T17:04:57.673Z,12.40
2022-12-29T17:07:26.813Z,12.30
2022-12-29T17:09:56.926Z,12.40
2022-12-29T17:12:29.985Z,12.40
2022-12-29T17:15:13.516Z,12.40
2022-12-29T17:17:46.175Z,12.30
2022-12-29T17:20:27.797Z,12.30
2022-12-29T17:22:54.668Z,12.30
2022-12-29T17:25:28.742Z,12.40
2022-12-29T17:28:07.995Z,12.40
2022-12-29T17:30:36.105Z,12.40
2022-12-29T17:33:06.107Z,12.40
2022-12-29T17:35:32.759Z,12.30
2022-12-29T17:37:59.384Z,12.30
2022-12-29T17:40:29.732Z,12.20
2022-12-29T17:42:58.136Z,12.20
2022-12-29T17:45:30.398Z,12.20
2022-12-29T17:48:00.064Z,12.20
2022-12-29T17:50:29.791Z,12.20
2022-12-29T17:53:04.139Z,12.20
2022-12-29T17:55:37.120Z,12.20
2022-12-29T17:58:23.755Z,12.30
2022-12-29T18:00:53.430Z,12.30
2022-12-29T18:03:34.478Z,12.30
2022-12-29T18:06:02.081Z,12.30
2022-12-29T18:08:29.433Z,12.20
2022-12-29T18:10:56.746Z,12.10
2022-12-29T18:13:39.351Z,12.00
2022-12-29T18:16:13.411Z,12.00
2022-12-29T18:18:40.218Z,11.90
2022-12-29T18:21:07.460Z,11.90
2022-12-29T18:23:37.548Z,11.90
2022-12-29T18:26:22.325Z,11.90
2022-12-29T18:28:54.080Z,12.00
2022-12-29T18:31:29.452Z,11.90
2022-12-29T18:33:57.814Z,11.90
2022-12-29T18:36:24.898Z,11.90
2022-12-29T18:38:53.938Z,11.90
2022-12-29T18:41:26.572Z,11.80
2022-12-29T18:43:53.229Z,11.90
2022-12-29T18:46:23.285Z,11.80
2022-12-29T18:48:50.840Z,11.80
2022-12-29T18:51:19.920Z,11.90
2022-12-29T18:53:46.970Z,11.80
2022-12-29T18:56:13.945Z,11.80
2022-12-29T18:58:40.954Z,11.80
2022-12-29T19:01:15.552Z,11.80
2022-12-29T19:03:42.360Z,11.80
2022-12-29T19:06:09.174Z,11.80
2022-12-29T19:08:35.815Z,11.80
2022-12-29T19:11:02.781Z,11.80
2022-12-29T19:13:29.508Z,11.80
2022-12-29T19:15:57.685Z,11.80
2022-12-29T19:18:43.734Z,11.90
2022-12-29T19:21:11.753Z,11.90
2022-12-29T19:23:38.471Z,11.90
2022-12-29T19:26:05.518Z,11.90
2022-12-29T19:28:32.366Z,11.80
2022-12-29T19:31:00.883Z,11.80
2022-12-29T19:33:28.369Z,11.80
2022-12-29T19:36:00.678Z,11.80
2022-12-29T19:38:27.410Z,11.80
2022-12-29T19:40:54.175Z,11.90
2022-12-29T19:43:21.080Z,11.80
2022-12-29T19:45:47.807Z,11.90
2022-12-29T19:48:17.455Z,11.80
2022-12-29T19:50:44.710Z,11.80
2022-12-29T19:53:12.191Z,11.80
2022-12-29T19:55:43.441Z,11.70
2022-12-29T19:58:10.271Z,11.70
2022-12-29T20:00:40.092Z,11.70
2022-12-29T20:03:07.114Z,11.70
2022-12-29T20:05:33.934Z,11.70
2022-12-29T20:08:00.572Z,11.70
2022-12-29T20:10:27.255Z,11.70
2022-12-29T20:12:53.874Z,11.60
2022-12-29T20:15:20.525Z,11.60
2022-12-29T20:18:16.288Z,11.50
2022-12-29T20:20:34.771Z,11.50
2022-12-29T20:23:01.519Z,11.50
2022-12-29T20:25:46.679Z,11.50
2022-12-29T20:28:14.882Z,11.50
2022-12-29T20:30:41.731Z,11.50
2022-12-29T20:33:08.997Z,11.50
2022-12-29T20:35:36.767Z,11.50
2022-12-29T20:38:04.403Z,11.50
2022-12-29T20:40:31.067Z,11.60
2022-12-29T20:42:57.902Z,11.60
2022-12-29T20:45:27.490Z,11.60
2022-12-29T20:47:54.713Z,11.70
2022-12-29T20:50:21.648Z,11.70
2022-12-29T20:52:48.338Z,11.70
2022-12-29T20:55:15.032Z,11.70
2022-12-29T20:58:21.965Z,11.70
2022-12-29T21:00:30.825Z,11.60
2022-12-29T21:03:01.642Z,11.60
2022-12-29T21:05:29.165Z,11.60
2022-12-29T21:07:56.612Z,11.60
2022-12-29T21:10:23.320Z,11.60
2022-12-29T21:12:50.176Z,11.60
2022-12-29T21:15:17.174Z,11.60
2022-12-29T21:17:44.561Z,11.50
2022-12-29T21:20:30.120Z,11.50
2022-12-29T21:23:01.248Z,11.40
2022-12-29T21:25:38.746Z,11.50
2022-12-29T21:28:12.064Z,11.50
2022-12-29T21:30:39.164Z,11.50
2022-12-29T21:33:06.081Z,11.50
2022-12-29T21:35:39.725Z,11.40
2022-12-29T21:38:07.985Z,11.50
2022-12-29T21:40:36.533Z,11.40
2022-12-29T21:43:03.685Z,11.50
2022-12-29T21:45:32.417Z,11.50
2022-12-29T21:48:21.650Z,11.50
2022-12-29T21:51:09.319Z,11.50
2022-12-29T21:53:39.325Z,11.60
2022-12-29T21:56:13.172Z,11.50
2022-12-29T21:59:00.899Z,11.50
2022-12-29T22:01:48.365Z,11.50
2022-12-29T22:04:36.354Z,11.50
2022-12-29T22:07:23.513Z,11.50
2022-12-29T22:10:11.675Z,11.60
2022-12-29T22:12:57.974Z,11.50
2022-12-29T22:15:25.286Z,11.50
2022-12-29T22:17:54.701Z,11.50
2022-12-29T22:20:25.112Z,11.50
2022-12-29T22:22:52.621Z,11.50
2022-12-29T22:25:19.381Z,11.50
2022-12-29T22:27:46.310Z,11.50
2022-12-29T22:30:13.709Z,11.50
2022-12-29T22:32:40.365Z,11.40
2022-12-29T22:35:11.431Z,11.40
2022-12-29T22:37:40.518Z,11.40
2022-12-29T22:40:09.994Z,11.40
2022-12-29T22:42:37.221Z,11.40
2022-12-29T22:47:34.635Z,11.40
2022-12-29T22:50:01.792Z,11.40
2022-12-29T22:52:28.582Z,11.40
2022-12-29T22:54:55.326Z,11.30
2022-12-29T22:57:22.030Z,11.30
2022-12-29T22:59:48.746Z,11.30
2022-12-29T23:02:15.447Z,11.30
2022-12-29T23:07:28.835Z,11.30
2022-12-29T23:09:55.504Z,11.40
2022-12-29T23:12:22.182Z,11.40
2022-12-29T23:14:48.859Z,11.40
2022-12-29T23:17:15.577Z,11.40
2022-12-29T23:19:42.194Z,11.30
2022-12-29T23:22:08.885Z,11.30
2022-12-29T23:24:35.552Z,11.30
2022-12-29T23:27:02.399Z,11.30
2022-12-29T23:29:29.095Z,11.20
2022-12-29T23:31:55.734Z,11.20
2022-12-29T23:34:22.567Z,11.20
2022-12-29T23:36:50.929Z,11.20
2022-12-29T23:39:20.780Z,11.20
2022-12-29T23:41:47.582Z,11.30
2022-12-29T23:44:14.350Z,11.30
2022-12-29T23:46:41.318Z,11.20
2022-12-29T23:49:09.300Z,11.20
2022-12-29T23:51:36.149Z,11.20
2022-12-29T23:54:03.001Z,11.20
2022-12-29T23:56:29.755Z,11.20
2022-12-29T23:58:56.644Z,11.30
